Terminal Aerodrome Forecast
Issued by NWS

Home | Current Version | Previous Version | Text Only | Print | Product List | Glossary On
Versions: 1 2 3 4 5 6 7 8 9 10 11 12 13 14 15 16 17
000
FTUS42 KFFC 231946 AAA
TAFFTY
TAF AMD
KFTY 231946Z 2320/2418 26007KT P6SM VCSH BKN050
      TEMPO 2320/2324 3SM TSRA BKN035CB
     FM240100 25005KT P6SM SCT120 SCT250
     FM241400 27006KT P6SM FEW040 SCT250
     FM241600 28007KT P6SM VCSH SCT050=

USA.gov is the U.S. government's official web portal to all federal, state and local government web resources and services.